createdAt,value
2023-03-27T00:00:05.841Z,974.36
2023-03-27T00:01:05.848Z,974.38
2023-03-27T00:02:05.831Z,974.39
2023-03-27T00:03:05.882Z,974.40
2023-03-27T00:04:05.856Z,974.40
2023-03-27T00:05:05.778Z,974.43
2023-03-27T00:06:05.785Z,974.42
2023-03-27T00:07:05.782Z,974.43
2023-03-27T00:08:05.748Z,974.46
2023-03-27T00:09:05.733Z,974.48
2023-03-27T00:10:05.736Z,974.51
2023-03-27T00:11:05.707Z,974.54
2023-03-27T00:12:05.717Z,974.53
2023-03-27T00:13:05.728Z,974.56
2023-03-27T00:14:05.702Z,974.58
2023-03-27T00:15:05.675Z,974.60
2023-03-27T00:16:05.672Z,974.64
2023-03-27T00:17:05.681Z,974.64
2023-03-27T00:18:05.746Z,974.66
2023-03-27T00:19:05.630Z,974.67
2023-03-27T00:20:06.556Z,974.71
2023-03-27T00:21:05.630Z,974.72
2023-03-27T00:22:05.611Z,974.74
2023-03-27T00:23:05.614Z,974.72
2023-03-27T00:24:05.615Z,974.78
2023-03-27T00:25:05.580Z,974.78
2023-03-27T00:26:05.551Z,974.77
2023-03-27T00:27:05.568Z,974.79
2023-03-27T00:28:05.536Z,974.80
2023-03-27T00:29:05.536Z,974.80
2023-03-27T00:30:05.563Z,974.77
2023-03-27T00:31:05.554Z,974.83
2023-03-27T00:32:05.492Z,974.79
2023-03-27T00:33:05.519Z,974.82
2023-03-27T00:34:05.501Z,974.84
2023-03-27T00:35:05.489Z,974.83
2023-03-27T00:36:05.494Z,974.84
2023-03-27T00:37:05.498Z,974.86
2023-03-27T00:38:05.458Z,974.87
2023-03-27T00:39:05.493Z,974.89
2023-03-27T00:40:05.435Z,974.86
2023-03-27T00:41:05.499Z,974.91
2023-03-27T00:42:05.408Z,974.94
2023-03-27T00:43:05.392Z,974.90
2023-03-27T00:44:05.365Z,974.91
2023-03-27T00:45:05.366Z,974.93
2023-03-27T00:46:05.376Z,974.93
2023-03-27T00:47:05.366Z,974.97
2023-03-27T00:48:05.336Z,974.99
2023-03-27T00:49:05.346Z,975.02
2023-03-27T00:50:05.318Z,975.03
2023-03-27T00:51:05.337Z,975.04
2023-03-27T00:52:05.310Z,975.08
2023-03-27T00:53:05.317Z,975.08
2023-03-27T00:54:05.293Z,975.12
2023-03-27T00:55:05.283Z,975.14
2023-03-27T00:56:05.274Z,975.12
2023-03-27T00:57:05.336Z,975.15
2023-03-27T00:58:05.276Z,975.16
2023-03-27T00:59:05.229Z,975.16
2023-03-27T01:00:05.978Z,975.16
2023-03-27T01:01:05.255Z,975.18
2023-03-27T01:02:05.192Z,975.17
2023-03-27T01:03:05.271Z,975.21
2023-03-27T01:04:05.232Z,975.21
2023-03-27T01:05:05.172Z,975.20
2023-03-27T01:06:05.178Z,975.23
2023-03-27T01:07:05.180Z,975.22
2023-03-27T01:08:05.157Z,975.24
2023-03-27T01:09:05.145Z,975.27
2023-03-27T01:10:05.206Z,975.28
2023-03-27T01:11:05.127Z,975.30
2023-03-27T01:12:05.139Z,975.33
2023-03-27T01:13:05.088Z,975.36
2023-03-27T01:14:05.099Z,975.38
2023-03-27T01:15:05.075Z,975.41
2023-03-27T01:16:05.174Z,975.47
2023-03-27T01:17:05.051Z,975.49
2023-03-27T01:18:05.085Z,975.54
2023-03-27T01:19:05.060Z,975.52
2023-03-27T01:20:05.020Z,975.55
2023-03-27T01:21:05.042Z,975.57
2023-03-27T01:22:05.011Z,975.58
2023-03-27T01:23:05.026Z,975.59
2023-03-27T01:24:04.993Z,975.62
2023-03-27T01:25:05.024Z,975.64
2023-03-27T01:26:04.970Z,975.64
2023-03-27T01:27:04.956Z,975.66
2023-03-27T01:28:04.945Z,975.69
2023-03-27T01:29:04.986Z,975.71
2023-03-27T01:30:04.931Z,975.73
2023-03-27T01:31:04.956Z,975.72
2023-03-27T01:32:04.916Z,975.73
2023-03-27T01:33:05.025Z,975.73
2023-03-27T01:34:04.972Z,975.75
2023-03-27T01:35:04.900Z,975.77
2023-03-27T01:36:04.899Z,975.79
2023-03-27T01:37:04.863Z,975.80
2023-03-27T01:38:04.849Z,975.83
2023-03-27T01:39:04.854Z,975.85
2023-03-27T01:40:04.893Z,975.90
2023-03-27T01:41:04.811Z,975.92
2023-03-27T01:42:04.821Z,975.93
2023-03-27T01:43:04.807Z,975.95
2023-03-27T01:44:04.789Z,975.95
2023-03-27T01:45:04.798Z,975.98
2023-03-27T01:46:04.807Z,976.01
2023-03-27T01:47:04.827Z,976.02
2023-03-27T01:48:04.813Z,976.03
2023-03-27T01:49:04.737Z,976.06
2023-03-27T01:50:04.761Z,976.08
2023-03-27T01:51:04.745Z,976.09
2023-03-27T01:52:04.727Z,976.11
2023-03-27T01:53:04.696Z,976.15
2023-03-27T01:54:04.677Z,976.16
2023-03-27T01:55:04.663Z,976.19
2023-03-27T01:56:04.660Z,976.21
2023-03-27T01:57:04.758Z,976.23
2023-03-27T01:58:04.658Z,976.25
2023-03-27T01:59:04.657Z,976.28
2023-03-27T02:00:18.289Z,976.28
2023-03-27T02:01:04.703Z,976.29
2023-03-27T02:02:04.646Z,976.30
2023-03-27T02:03:04.632Z,976.33
2023-03-27T02:04:04.590Z,976.37
2023-03-27T02:05:04.614Z,976.43
2023-03-27T02:06:04.555Z,976.42
2023-03-27T02:07:04.550Z,976.47
2023-03-27T02:08:04.565Z,976.48
2023-03-27T02:09:04.564Z,976.47
2023-03-27T02:10:04.537Z,976.49
2023-03-27T02:11:04.560Z,976.49
2023-03-27T02:12:04.536Z,976.49
2023-03-27T02:13:04.509Z,976.53
2023-03-27T02:14:04.483Z,976.51
2023-03-27T02:15:24.447Z,976.52
2023-03-27T02:16:04.524Z,976.53
2023-03-27T02:17:04.454Z,976.56
2023-03-27T02:18:04.478Z,976.60
2023-03-27T02:19:04.446Z,976.62
2023-03-27T02:20:04.415Z,976.64
2023-03-27T02:21:04.418Z,976.71
2023-03-27T02:22:04.402Z,976.72
2023-03-27T02:23:04.429Z,976.77
2023-03-27T02:24:04.378Z,976.80
2023-03-27T02:25:04.397Z,976.80
2023-03-27T02:26:04.364Z,976.77
2023-03-27T02:27:04.365Z,976.80
2023-03-27T02:28:04.350Z,976.88
2023-03-27T02:29:04.375Z,976.88
2023-03-27T02:30:04.329Z,976.89
2023-03-27T02:31:06.309Z,976.94
2023-03-27T02:32:04.336Z,976.98
2023-03-27T02:33:04.357Z,976.97
2023-03-27T02:34:04.287Z,977.01
2023-03-27T02:35:04.341Z,977.03
2023-03-27T02:36:04.304Z,977.07
2023-03-27T02:37:04.261Z,977.09
2023-03-27T02:38:04.265Z,977.11
2023-03-27T02:39:04.245Z,977.12
2023-03-27T02:40:04.229Z,977.16
2023-03-27T02:41:04.242Z,977.18
2023-03-27T02:42:04.210Z,977.22
2023-03-27T02:43:04.211Z,977.26
2023-03-27T02:44:04.197Z,977.25
2023-03-27T02:45:04.180Z,977.27
2023-03-27T02:46:04.213Z,977.30
2023-03-27T02:47:04.245Z,977.32
2023-03-27T02:48:04.201Z,977.37
2023-03-27T02:49:04.157Z,977.40
2023-03-27T02:50:04.126Z,977.39
2023-03-27T02:51:04.134Z,977.41
2023-03-27T02:52:04.123Z,977.40
2023-03-27T02:53:04.167Z,977.42
2023-03-27T02:54:04.110Z,977.43
2023-03-27T02:55:04.102Z,977.46
2023-03-27T02:56:04.103Z,977.45
2023-03-27T02:57:04.091Z,977.50
2023-03-27T02:58:04.051Z,977.50
2023-03-27T02:59:04.079Z,977.53
2023-03-27T03:00:04.053Z,977.59
2023-03-27T03:01:04.057Z,977.56
2023-03-27T03:02:04.042Z,977.62
2023-03-27T03:03:04.077Z,977.67
2023-03-27T03:04:03.993Z,977.71
2023-03-27T03:05:04.072Z,977.74
2023-03-27T03:06:03.966Z,977.78
2023-03-27T03:07:03.986Z,977.80
2023-03-27T03:08:03.954Z,977.81
2023-03-27T03:09:03.958Z,977.84
2023-03-27T03:10:03.937Z,977.84
2023-03-27T03:11:03.977Z,977.89
2023-03-27T03:12:03.916Z,977.95
2023-03-27T03:13:03.915Z,977.98
2023-03-27T03:14:03.914Z,978.04
2023-03-27T03:15:03.905Z,978.04
2023-03-27T03:16:03.898Z,978.07
2023-03-27T03:17:03.913Z,978.10
2023-03-27T03:18:03.924Z,978.14
2023-03-27T03:19:03.876Z,978.17
2023-03-27T03:20:03.873Z,978.14
2023-03-27T03:21:03.832Z,978.17
2023-03-27T03:22:03.808Z,978.21
2023-03-27T03:23:03.834Z,978.24
2023-03-27T03:24:03.807Z,978.29
2023-03-27T03:25:03.788Z,978.33
2023-03-27T03:26:03.766Z,978.35
2023-03-27T03:27:03.770Z,978.36
2023-03-27T03:28:03.777Z,978.39
2023-03-27T03:29:03.765Z,978.43
2023-03-27T03:30:03.733Z,978.45
2023-03-27T03:31:03.791Z,978.48
2023-03-27T03:32:03.711Z,978.50
2023-03-27T03:33:03.730Z,978.53
2023-03-27T03:34:03.715Z,978.56
2023-03-27T03:35:03.673Z,978.57
2023-03-27T03:36:03.728Z,978.61
2023-03-27T03:37:03.689Z,978.62
2023-03-27T03:38:03.673Z,978.64
2023-03-27T03:39:03.693Z,978.67
2023-03-27T03:40:03.652Z,978.70
2023-03-27T03:41:03.644Z,978.73
2023-03-27T03:42:03.627Z,978.76
2023-03-27T03:43:03.609Z,978.78
2023-03-27T03:44:03.610Z,978.81
2023-03-27T03:45:03.616Z,978.81
2023-03-27T03:46:03.606Z,978.83
2023-03-27T03:47:03.603Z,978.86
2023-03-27T03:48:03.614Z,978.89
2023-03-27T03:49:03.548Z,978.89
2023-03-27T03:50:03.527Z,978.93
2023-03-27T03:51:03.537Z,978.95
2023-03-27T03:52:04.945Z,978.95
2023-03-27T03:53:03.903Z,978.97
2023-03-27T03:54:03.502Z,979.02
2023-03-27T03:55:03.489Z,979.06
2023-03-27T03:56:03.478Z,979.11
2023-03-27T03:57:03.597Z,979.15
2023-03-27T03:58:03.458Z,979.21
2023-03-27T03:59:03.464Z,979.24
2023-03-27T04:00:03.442Z,979.29
2023-03-27T04:01:03.425Z,979.32
2023-03-27T04:02:03.591Z,979.34
2023-03-27T04:03:03.491Z,979.36
2023-03-27T04:04:03.413Z,979.41
2023-03-27T04:05:08.722Z,979.44
2023-03-27T04:06:03.362Z,979.49
2023-03-27T04:07:03.359Z,979.52
2023-03-27T04:08:03.349Z,979.56
2023-03-27T04:09:03.342Z,979.55
2023-03-27T04:10:03.345Z,979.61
2023-03-27T04:11:03.388Z,979.63
2023-03-27T04:12:03.316Z,979.65
2023-03-27T04:13:03.315Z,979.64
2023-03-27T04:14:03.286Z,979.66
2023-03-27T04:15:03.294Z,979.69
2023-03-27T04:16:03.331Z,979.73
2023-03-27T04:17:03.309Z,979.78
2023-03-27T04:18:03.304Z,979.82
2023-03-27T04:19:03.266Z,979.86
2023-03-27T04:20:03.227Z,979.85
2023-03-27T04:21:03.254Z,979.87
2023-03-27T04:22:03.218Z,979.86
2023-03-27T04:23:03.261Z,979.88
2023-03-27T04:24:03.189Z,979.92
2023-03-27T04:25:03.209Z,979.96
2023-03-27T04:26:03.344Z,979.98
2023-03-27T04:27:03.163Z,979.98
2023-03-27T04:28:03.156Z,980.01
2023-03-27T04:29:03.188Z,980.03
2023-03-27T04:30:03.149Z,980.04
2023-03-27T04:31:03.162Z,980.00
2023-03-27T04:32:03.132Z,979.98
2023-03-27T04:33:03.182Z,980.02
2023-03-27T04:34:03.154Z,980.06
2023-03-27T04:35:03.133Z,980.08
2023-03-27T04:36:06.482Z,980.11
2023-03-27T04:37:03.082Z,980.12
2023-03-27T04:38:03.061Z,980.15
2023-03-27T04:39:03.043Z,980.21
2023-03-27T04:40:03.058Z,980.26
2023-03-27T04:41:03.086Z,980.27
2023-03-27T04:42:03.028Z,980.31
2023-03-27T04:43:03.021Z,980.30
2023-03-27T04:44:03.010Z,980.34
2023-03-27T04:45:03.002Z,980.37
2023-03-27T04:46:02.987Z,980.40
2023-03-27T04:47:03.054Z,980.43
2023-03-27T04:48:03.053Z,980.47
2023-03-27T04:49:02.936Z,980.48
2023-03-27T04:50:02.936Z,980.50
2023-03-27T04:51:02.938Z,980.53
2023-03-27T04:52:02.920Z,980.54
2023-03-27T04:53:02.966Z,980.55
2023-03-27T04:54:02.908Z,980.60
2023-03-27T04:55:02.884Z,980.64
2023-03-27T04:56:02.869Z,980.67
2023-03-27T04:57:02.946Z,980.72
2023-03-27T04:58:02.854Z,980.72
2023-03-27T04:59:03.156Z,980.71
2023-03-27T05:00:02.860Z,980.76
2023-03-27T05:01:02.847Z,980.76
2023-03-27T05:02:02.815Z,980.79
2023-03-27T05:03:02.906Z,980.82
2023-03-27T05:04:02.871Z,980.84
2023-03-27T05:05:02.814Z,980.86
2023-03-27T05:06:02.821Z,980.92
2023-03-27T05:07:02.762Z,980.93
2023-03-27T05:08:02.754Z,980.98
2023-03-27T05:09:02.745Z,980.99
2023-03-27T05:10:02.753Z,981.01
2023-03-27T05:11:02.744Z,981.04
2023-03-27T05:12:02.705Z,981.08
2023-03-27T05:13:02.748Z,981.10
2023-03-27T05:14:02.710Z,981.14
2023-03-27T05:15:02.690Z,981.18
2023-03-27T05:16:02.742Z,981.16
2023-03-27T05:17:02.755Z,981.21
2023-03-27T05:18:02.757Z,981.21
2023-03-27T05:19:02.650Z,981.23
2023-03-27T05:20:02.682Z,981.25
2023-03-27T05:21:02.641Z,981.24
2023-03-27T05:22:02.625Z,981.27
2023-03-27T05:23:02.620Z,981.30
2023-03-27T05:24:02.601Z,981.30
2023-03-27T05:25:02.578Z,981.28
2023-03-27T05:26:02.594Z,981.28
2023-03-27T05:27:02.579Z,981.30
2023-03-27T05:28:02.598Z,981.34
2023-03-27T05:29:02.550Z,981.35
2023-03-27T05:30:02.580Z,981.38
2023-03-27T05:31:02.536Z,981.42
2023-03-27T05:32:02.530Z,981.46
2023-03-27T05:33:02.564Z,981.48
2023-03-27T05:34:02.536Z,981.50
2023-03-27T05:35:02.501Z,981.55
2023-03-27T05:36:02.525Z,981.55
2023-03-27T05:37:02.484Z,981.60
2023-03-27T05:38:02.458Z,981.59
2023-03-27T05:39:02.485Z,981.63
2023-03-27T05:40:02.439Z,981.65
2023-03-27T05:41:02.482Z,981.69
2023-03-27T05:42:02.429Z,981.68
2023-03-27T05:43:02.430Z,981.76
2023-03-27T05:44:02.403Z,981.78
2023-03-27T05:45:02.430Z,981.78
2023-03-27T05:46:02.382Z,981.84
2023-03-27T05:47:02.396Z,981.86
2023-03-27T05:48:02.424Z,981.88
2023-03-27T05:49:02.357Z,981.89
2023-03-27T05:50:02.335Z,981.93
2023-03-27T05:51:02.350Z,981.92
2023-03-27T05:52:02.326Z,981.95
2023-03-27T05:53:02.378Z,981.98
2023-03-27T05:54:02.333Z,981.99
2023-03-27T05:55:02.294Z,981.95
2023-03-27T05:56:03.570Z,981.98
2023-03-27T05:57:02.294Z,982.03
2023-03-27T05:58:02.270Z,982.07
2023-03-27T05:59:02.293Z,982.09
2023-03-27T06:00:02.329Z,982.16
2023-03-27T06:01:02.241Z,982.20
2023-03-27T06:02:02.346Z,982.20
2023-03-27T06:03:02.362Z,982.21
2023-03-27T06:04:02.228Z,982.25
2023-03-27T06:05:02.229Z,982.29
2023-03-27T06:06:02.181Z,982.31
2023-03-27T06:07:02.171Z,982.37
2023-03-27T06:08:02.169Z,982.41
2023-03-27T06:09:02.162Z,982.43
2023-03-27T06:10:02.178Z,982.47
2023-03-27T06:11:02.142Z,982.50
2023-03-27T06:12:02.128Z,982.52
2023-03-27T06:13:02.107Z,982.51
2023-03-27T06:14:02.100Z,982.57
2023-03-27T06:15:02.081Z,982.54
2023-03-27T06:16:02.191Z,982.49
2023-03-27T06:17:02.090Z,982.56
2023-03-27T06:18:02.079Z,982.61
2023-03-27T06:19:02.057Z,982.65
2023-03-27T06:20:02.070Z,982.61
2023-03-27T06:21:02.080Z,982.66
2023-03-27T06:22:02.149Z,982.65
2023-03-27T06:23:02.021Z,982.68
2023-03-27T06:24:02.013Z,982.69
2023-03-27T06:25:01.986Z,982.70
2023-03-27T06:26:01.999Z,982.74
2023-03-27T06:27:02.519Z,982.79
2023-03-27T06:28:01.985Z,982.78
2023-03-27T06:29:01.945Z,982.79
2023-03-27T06:30:02.000Z,982.82
2023-03-27T06:31:01.955Z,982.82
2023-03-27T06:32:01.943Z,982.82
2023-03-27T06:33:01.981Z,982.84
2023-03-27T06:34:01.917Z,982.84
2023-03-27T06:35:01.890Z,982.89
2023-03-27T06:36:01.913Z,982.94
2023-03-27T06:37:01.880Z,982.89
2023-03-27T06:38:01.877Z,982.93
2023-03-27T06:39:01.877Z,982.93
2023-03-27T06:40:02.277Z,982.94
2023-03-27T06:41:01.864Z,982.96
2023-03-27T06:42:01.836Z,982.97
2023-03-27T06:43:01.842Z,982.99
2023-03-27T06:44:01.815Z,983.02
2023-03-27T06:45:01.825Z,983.03
2023-03-27T06:46:01.857Z,983.07
2023-03-27T06:47:01.904Z,983.11
2023-03-27T06:48:15.393Z,983.13
2023-03-27T06:49:01.762Z,983.14
2023-03-27T06:50:01.786Z,983.16
2023-03-27T06:51:01.750Z,983.19
2023-03-27T06:52:01.729Z,983.22
2023-03-27T06:53:03.046Z,983.24
2023-03-27T06:54:01.717Z,983.25
2023-03-27T06:55:01.765Z,983.24
2023-03-27T06:56:01.898Z,983.25
2023-03-27T06:57:01.792Z,983.31
2023-03-27T06:58:01.706Z,983.31
2023-03-27T06:59:01.663Z,983.32
2023-03-27T07:00:02.425Z,983.34
2023-03-27T07:01:01.675Z,983.35
2023-03-27T07:02:01.746Z,983.36
2023-03-27T07:03:01.680Z,983.39
2023-03-27T07:04:01.618Z,983.41
2023-03-27T07:05:05.167Z,983.47
2023-03-27T07:06:01.831Z,983.49
2023-03-27T07:07:01.629Z,983.52
2023-03-27T07:08:14.806Z,983.53
2023-03-27T07:09:01.557Z,983.59
2023-03-27T07:10:01.608Z,983.62
2023-03-27T07:12:01.563Z,983.66
2023-03-27T07:13:01.527Z,983.68
2023-03-27T07:14:01.520Z,983.66
2023-03-27T07:15:01.507Z,983.66
2023-03-27T07:16:01.518Z,983.70
2023-03-27T07:17:01.476Z,983.74
2023-03-27T07:18:01.497Z,983.74
2023-03-27T07:19:02.451Z,983.73
2023-03-27T07:20:01.456Z,983.77
2023-03-27T07:21:01.450Z,983.80
2023-03-27T07:22:01.443Z,983.82
2023-03-27T07:23:01.402Z,983.84
2023-03-27T07:24:01.423Z,983.81
2023-03-27T07:25:01.422Z,983.83
2023-03-27T07:26:01.403Z,983.85
2023-03-27T07:27:01.373Z,983.88
2023-03-27T07:28:01.380Z,983.92
2023-03-27T07:29:01.344Z,983.95
2023-03-27T07:30:01.338Z,983.97
2023-03-27T07:31:01.371Z,984.00
2023-03-27T07:32:04.494Z,983.98
2023-03-27T07:33:01.369Z,984.04
2023-03-27T07:34:01.374Z,984.07
2023-03-27T07:35:01.282Z,984.08
2023-03-27T07:36:01.415Z,984.08
2023-03-27T07:37:01.280Z,984.13
2023-03-27T07:38:01.277Z,984.16
2023-03-27T07:39:01.253Z,984.19
2023-03-27T07:40:01.233Z,984.20
2023-03-27T07:41:01.250Z,984.23
2023-03-27T07:42:01.277Z,984.28
2023-03-27T07:43:01.228Z,984.33
2023-03-27T07:44:01.214Z,984.34
2023-03-27T07:45:03.499Z,984.37
2023-03-27T07:46:01.222Z,984.39
2023-03-27T07:47:01.181Z,984.42
2023-03-27T07:48:01.260Z,984.43
2023-03-27T07:49:01.167Z,984.42
2023-03-27T07:50:01.177Z,984.49
2023-03-27T07:51:12.902Z,984.46
2023-03-27T07:52:01.137Z,984.44
2023-03-27T07:53:01.152Z,984.47
2023-03-27T07:54:01.128Z,984.45
2023-03-27T07:55:01.104Z,984.50
2023-03-27T07:56:01.155Z,984.53
2023-03-27T07:57:01.210Z,984.58
2023-03-27T07:58:02.903Z,984.59
2023-03-27T07:59:01.155Z,984.65
2023-03-27T08:00:01.063Z,984.68
2023-03-27T08:01:01.037Z,984.64
2023-03-27T08:02:01.028Z,984.69
2023-03-27T08:03:01.106Z,984.71
2023-03-27T08:04:01.162Z,984.74
2023-03-27T08:05:01.126Z,984.74
2023-03-27T08:06:01.061Z,984.75
2023-03-27T08:07:00.989Z,984.74
2023-03-27T08:08:00.971Z,984.76
2023-03-27T08:09:02.744Z,984.77
2023-03-27T08:10:01.018Z,984.77
2023-03-27T08:11:00.965Z,984.77
2023-03-27T08:12:00.943Z,984.76
2023-03-27T08:13:00.937Z,984.74
2023-03-27T08:14:00.926Z,984.78
2023-03-27T08:15:00.916Z,984.77
2023-03-27T08:16:00.936Z,984.80
2023-03-27T08:17:14.712Z,984.78
2023-03-27T08:18:00.993Z,984.76
2023-03-27T08:19:00.922Z,984.79
2023-03-27T08:20:00.848Z,984.77
2023-03-27T08:21:00.846Z,984.83
2023-03-27T08:22:00.865Z,984.88
2023-03-27T08:23:00.821Z,984.86
2023-03-27T08:24:00.818Z,984.86
2023-03-27T08:25:00.816Z,984.89
2023-03-27T08:26:00.839Z,984.89
2023-03-27T08:27:00.793Z,984.90
2023-03-27T08:28:00.817Z,984.86
2023-03-27T08:29:00.813Z,984.92
2023-03-27T08:30:00.770Z,984.91
2023-03-27T08:31:02.945Z,984.91
2023-03-27T08:32:01.393Z,984.92
2023-03-27T08:33:00.768Z,984.95
2023-03-27T08:34:00.729Z,984.93
2023-03-27T08:35:00.724Z,984.94
2023-03-27T08:36:00.782Z,984.93
2023-03-27T08:37:00.677Z,984.93
2023-03-27T08:38:00.678Z,984.99
2023-03-27T08:39:00.674Z,984.96
2023-03-27T08:40:00.685Z,985.01
2023-03-27T08:41:00.657Z,985.06
2023-03-27T08:42:00.653Z,985.08
2023-03-27T08:43:00.643Z,985.07
2023-03-27T08:44:00.632Z,985.07
2023-03-27T08:45:00.627Z,985.10
2023-03-27T08:46:00.798Z,985.13
2023-03-27T08:47:00.616Z,985.14
2023-03-27T08:48:00.623Z,985.13
2023-03-27T08:49:00.569Z,985.14
2023-03-27T08:50:00.601Z,985.17
2023-03-27T08:51:00.541Z,985.19
2023-03-27T08:52:00.571Z,985.22
2023-03-27T08:53:00.549Z,985.24
2023-03-27T08:54:00.537Z,985.21
2023-03-27T08:55:00.530Z,985.23
2023-03-27T08:56:00.533Z,985.23
2023-03-27T08:57:00.498Z,985.27
2023-03-27T08:58:00.540Z,985.28
2023-03-27T08:59:00.464Z,985.33
2023-03-27T09:00:00.458Z,985.31
2023-03-27T09:01:00.445Z,985.33
2023-03-27T09:02:00.491Z,985.33
2023-03-27T09:03:00.484Z,985.42
2023-03-27T09:04:00.561Z,985.38
2023-03-27T09:05:00.413Z,985.41
2023-03-27T09:06:00.420Z,985.43
2023-03-27T09:07:00.429Z,985.40
2023-03-27T09:08:00.408Z,985.42
2023-03-27T09:09:00.379Z,985.41
2023-03-27T09:10:00.369Z,985.45
2023-03-27T09:11:00.360Z,985.41
2023-03-27T09:12:00.349Z,985.42
2023-03-27T09:13:00.343Z,985.35
2023-03-27T09:14:00.331Z,985.38
2023-03-27T09:15:00.312Z,985.37
2023-03-27T09:16:00.583Z,985.44
2023-03-27T09:17:00.292Z,985.42
2023-03-27T09:18:00.370Z,985.43
2023-03-27T09:19:00.258Z,985.38
2023-03-27T09:20:00.267Z,985.43
2023-03-27T09:21:00.249Z,985.44
2023-03-27T09:22:00.265Z,985.44
2023-03-27T09:23:00.232Z,985.46
2023-03-27T09:24:00.259Z,985.45
2023-03-27T09:25:00.240Z,985.49
2023-03-27T09:26:00.213Z,985.47
2023-03-27T09:27:07.151Z,985.49
2023-03-27T09:28:00.202Z,985.50
2023-03-27T09:29:00.216Z,985.50
2023-03-27T09:30:04.860Z,985.49
2023-03-27T09:31:00.162Z,985.52
2023-03-27T09:32:00.145Z,985.50
2023-03-27T09:33:00.168Z,985.46
2023-03-27T09:34:00.122Z,985.48
2023-03-27T09:35:00.116Z,985.45
2023-03-27T09:36:00.465Z,985.49
2023-03-27T09:37:00.112Z,985.49
2023-03-27T09:38:00.187Z,985.49
2023-03-27T09:39:00.123Z,985.45
2023-03-27T09:40:00.109Z,985.43
2023-03-27T09:41:00.054Z,985.39
2023-03-27T09:42:00.081Z,985.46
2023-03-27T09:43:00.047Z,985.46
2023-03-27T09:44:00.050Z,985.48
2023-03-27T09:45:00.013Z,985.41
2023-03-27T09:45:59.995Z,985.42
2023-03-27T09:47:00.094Z,985.43
2023-03-27T09:48:00.049Z,985.43
2023-03-27T09:48:59.967Z,985.44
2023-03-27T09:49:59.960Z,985.43
2023-03-27T09:50:59.953Z,985.45
2023-03-27T09:51:59.929Z,985.43
2023-03-27T09:52:59.983Z,985.44
2023-03-27T09:53:59.928Z,985.40
2023-03-27T09:55:00.113Z,985.38
2023-03-27T09:56:01.062Z,985.48
2023-03-27T09:56:59.936Z,985.51
2023-03-27T09:57:59.885Z,985.52
2023-03-27T09:58:59.905Z,985.61
2023-03-27T09:59:59.864Z,985.59
2023-03-27T10:00:59.997Z,985.59
2023-03-27T10:01:59.850Z,985.59
2023-03-27T10:02:59.977Z,985.64
2023-03-27T10:04:00.007Z,985.73
2023-03-27T10:04:59.858Z,985.71
2023-03-27T10:05:59.846Z,985.80
2023-03-27T10:06:59.813Z,985.83
2023-03-27T10:07:59.871Z,985.82
2023-03-27T10:08:59.767Z,985.83
2023-03-27T10:09:59.749Z,985.85
2023-03-27T10:10:59.890Z,985.87
2023-03-27T10:11:59.781Z,985.88
2023-03-27T10:12:59.744Z,985.88
2023-03-27T10:13:59.754Z,985.94
2023-03-27T10:14:59.712Z,985.99
2023-03-27T10:15:59.750Z,985.92
2023-03-27T10:16:59.782Z,985.92
2023-03-27T10:17:59.740Z,985.88
2023-03-27T10:18:59.808Z,985.79
2023-03-27T10:19:59.691Z,985.76
2023-03-27T10:20:59.681Z,985.76
2023-03-27T10:21:59.654Z,985.74
2023-03-27T10:22:59.663Z,985.73
2023-03-27T10:23:59.652Z,985.71
2023-03-27T10:24:59.625Z,985.71
2023-03-27T10:25:59.599Z,985.70
2023-03-27T10:26:59.611Z,985.72
2023-03-27T10:27:59.585Z,985.74
2023-03-27T10:28:59.587Z,985.73
2023-03-27T10:29:59.566Z,985.72
2023-03-27T10:30:59.620Z,985.69
2023-03-27T10:31:59.593Z,985.69
2023-03-27T10:32:59.572Z,985.71
2023-03-27T10:33:59.544Z,985.74
2023-03-27T10:34:59.527Z,985.74
2023-03-27T10:35:59.639Z,985.84
2023-03-27T10:36:59.500Z,985.82
2023-03-27T10:37:59.483Z,985.85
2023-03-27T10:38:59.496Z,985.89
2023-03-27T10:39:59.467Z,985.91
2023-03-27T10:40:59.487Z,985.95
2023-03-27T10:41:59.469Z,986.02
2023-03-27T10:42:59.432Z,986.13
2023-03-27T10:43:59.448Z,986.18
2023-03-27T10:44:59.420Z,986.23
2023-03-27T10:45:59.436Z,986.54
2023-03-27T10:46:59.468Z,986.54
2023-03-27T10:47:59.440Z,986.57
2023-03-27T10:48:59.396Z,986.69
2023-03-27T10:49:59.382Z,986.74
2023-03-27T10:50:59.389Z,986.44
2023-03-27T10:51:59.343Z,986.43
2023-03-27T10:52:59.443Z,986.43
2023-03-27T10:53:59.445Z,986.43
2023-03-27T10:54:59.451Z,986.42
2023-03-27T10:55:59.308Z,986.41
2023-03-27T10:56:59.619Z,986.40
2023-03-27T10:57:59.323Z,986.39
2023-03-27T10:58:59.338Z,986.40
2023-03-27T10:59:59.252Z,986.41
2023-03-27T11:00:59.561Z,986.40
2023-03-27T11:01:59.300Z,986.44
2023-03-27T11:02:59.286Z,986.43
2023-03-27T11:03:59.260Z,986.38
2023-03-27T11:04:59.254Z,986.40
2023-03-27T11:05:59.239Z,986.32
2023-03-27T11:06:59.225Z,986.38
2023-03-27T11:07:59.196Z,986.34
2023-03-27T11:08:59.192Z,986.36
2023-03-27T11:09:59.214Z,986.32
2023-03-27T11:10:59.300Z,986.33
2023-03-27T11:11:59.216Z,986.30
2023-03-27T11:12:59.144Z,986.29
2023-03-27T11:13:59.115Z,986.29
2023-03-27T11:14:59.133Z,986.33
2023-03-27T11:15:59.134Z,986.34
2023-03-27T11:16:59.126Z,986.35
2023-03-27T11:17:59.169Z,986.38
2023-03-27T11:18:59.071Z,986.35
2023-03-27T11:19:59.081Z,986.38
2023-03-27T11:20:59.222Z,986.37
2023-03-27T11:21:59.048Z,986.33
2023-03-27T11:22:59.062Z,986.32
2023-03-27T11:23:59.036Z,986.34
2023-03-27T11:24:59.015Z,986.39
2023-03-27T11:25:59.014Z,986.44
2023-03-27T11:26:59.003Z,986.47
2023-03-27T11:27:58.978Z,986.57
2023-03-27T11:28:59.145Z,986.60
2023-03-27T11:29:58.971Z,986.64
2023-03-27T11:30:59.210Z,986.76
2023-03-27T11:31:58.980Z,986.75
2023-03-27T11:32:59.054Z,986.84
2023-03-27T11:33:58.937Z,986.96
2023-03-27T11:34:58.975Z,986.98
2023-03-27T11:35:58.972Z,986.99
2023-03-27T11:36:58.900Z,987.02
2023-03-27T11:37:58.877Z,986.97
2023-03-27T11:38:58.879Z,986.97
2023-03-27T11:39:58.854Z,986.95
2023-03-27T11:40:59.131Z,986.92
2023-03-27T11:41:58.851Z,986.90
2023-03-27T11:42:58.841Z,986.88
2023-03-27T11:43:59.078Z,986.85
2023-03-27T11:44:58.834Z,986.84
2023-03-27T11:45:58.878Z,986.82
2023-03-27T11:46:58.841Z,986.80
2023-03-27T11:47:58.873Z,986.79
2023-03-27T11:48:58.793Z,986.77
2023-03-27T11:49:58.824Z,986.78
2023-03-27T11:50:59.148Z,986.78
2023-03-27T11:51:58.760Z,986.76
2023-03-27T11:52:58.733Z,986.73
2023-03-27T11:53:58.727Z,986.70
2023-03-27T11:54:58.731Z,986.73
2023-03-27T11:55:58.739Z,986.71
2023-03-27T11:56:58.733Z,986.73
2023-03-27T11:57:58.686Z,986.75
2023-03-27T11:58:58.685Z,986.80
2023-03-27T11:59:58.661Z,986.80
2023-03-27T12:00:58.910Z,986.78
2023-03-27T12:01:58.747Z,986.83
2023-03-27T12:02:58.706Z,986.81
2023-03-27T12:03:58.764Z,986.77
2023-03-27T12:04:58.609Z,986.75
2023-03-27T12:05:58.619Z,986.78
2023-03-27T12:07:04.270Z,986.72
2023-03-27T12:07:58.603Z,986.78
2023-03-27T12:08:58.591Z,986.73
2023-03-27T12:09:58.582Z,986.72
2023-03-27T12:10:58.809Z,986.66
2023-03-27T12:11:58.548Z,986.66
2023-03-27T12:12:58.545Z,986.63
2023-03-27T12:14:02.094Z,986.66
2023-03-27T12:14:58.543Z,986.63
2023-03-27T12:15:58.522Z,986.57
2023-03-27T12:16:58.512Z,986.56
2023-03-27T12:17:58.574Z,986.54
2023-03-27T12:19:05.860Z,986.60
2023-03-27T12:19:58.464Z,986.53
2023-03-27T12:20:58.462Z,986.48
2023-03-27T12:21:58.452Z,986.44
2023-03-27T12:22:58.482Z,986.50
2023-03-27T12:23:58.421Z,986.48
2023-03-27T12:24:59.963Z,986.55
2023-03-27T12:25:58.411Z,986.48
2023-03-27T12:26:58.405Z,986.47
2023-03-27T12:27:58.455Z,986.43
2023-03-27T12:28:58.389Z,986.38